Time;durP1;ratioP1;P1;durP2;ratioP2;P2;SDS_P1;SDS_P2;PMS_P1;PMS_P2;Temp;Humidity;BMP_temperature;BMP_pressure;BME280_temperature;BME280_humidity;BME280_pressure;Samples;Min_cycle;Max_cycle;Signal;HPM_P1;HPM_P2
2021/04/24 00:02:01;;;;;;;10.67;5.50;;;5.80;87.60;;;;;;5041734;28;20048;-80
2021/04/24 00:04:28;;;;;;;14.03;5.93;;;5.80;87.40;;;;;;5023059;28;20070;-80
2021/04/24 00:06:54;;;;;;;13.53;6.93;;;5.80;87.80;;;;;;5022139;28;20063;-80
2021/04/24 00:09:21;;;;;;;17.77;8.03;;;5.80;87.90;;;;;;5035834;28;20036;-80
2021/04/24 00:11:47;;;;;;;10.23;5.43;;;5.70;88.20;;;;;;5033922;28;20053;-80
2021/04/24 00:14:14;;;;;;;14.17;7.03;;;5.70;88.10;;;;;;5036726;28;20067;-80
2021/04/24 00:16:40;;;;;;;10.60;6.63;;;5.70;88.10;;;;;;5016380;28;20430;-80
2021/04/24 00:19:07;;;;;;;13.20;7.53;;;5.70;88.20;;;;;;5018087;28;20045;-80
2021/04/24 00:21:34;;;;;;;12.77;6.77;;;5.60;88.50;;;;;;5017506;28;20036;-80
2021/04/24 00:24:00;;;;;;;13.57;7.27;;;5.60;89.00;;;;;;5036398;28;20040;-80
2021/04/24 00:26:27;;;;;;;13.97;7.60;;;5.60;88.80;;;;;;5017080;28;20502;-80
2021/04/24 00:28:54;;;;;;;17.73;8.50;;;5.60;88.70;;;;;;5020052;28;20040;-80
2021/04/24 00:31:20;;;;;;;15.27;7.57;;;5.50;89.50;;;;;;5019364;28;20402;-80
2021/04/24 00:33:46;;;;;;;11.97;6.30;;;5.50;89.30;;;;;;5021032;28;20033;-80
2021/04/24 00:36:14;;;;;;;12.13;6.63;;;5.50;89.10;;;;;;5031321;28;20813;-80
2021/04/24 00:38:41;;;;;;;12.53;7.43;;;5.50;89.10;;;;;;5030956;28;20096;-80
2021/04/24 00:41:08;;;;;;;16.70;8.07;;;5.40;89.30;;;;;;5037396;28;20395;-80
2021/04/24 00:43:35;;;;;;;14.17;7.13;;;5.40;89.50;;;;;;5022547;28;20037;-80
2021/04/24 00:46:11;;;;;;;12.40;6.97;;;5.40;89.40;;;;;;5040999;28;20510;-80
2021/04/24 00:48:38;;;;;;;12.63;7.23;;;5.40;89.50;;;;;;5032808;28;20063;-80
2021/04/24 00:51:06;;;;;;;16.03;7.90;;;5.40;89.70;;;;;;5054027;28;20032;-80
2021/04/24 00:53:34;;;;;;;11.13;6.80;;;5.40;90.20;;;;;;5055073;28;20037;-80
2021/04/24 00:56:01;;;;;;;11.53;7.33;;;5.30;89.80;;;;;;5049750;28;20128;-80
2021/04/24 00:58:28;;;;;;;15.13;7.07;;;5.30;90.20;;;;;;5035692;28;20407;-80
2021/04/24 01:00:55;;;;;;;17.20;8.60;;;5.30;89.70;;;;;;5018446;28;20040;-80
2021/04/24 01:03:21;;;;;;;10.47;5.73;;;5.30;90.00;;;;;;5035323;28;20056;-80
2021/04/24 01:05:48;;;;;;;10.67;6.50;;;5.30;90.00;;;;;;5068079;28;20510;-80
2021/04/24 01:08:15;;;;;;;14.90;7.33;;;5.30;90.00;;;;;;5032049;28;20055;-80
2021/04/24 01:10:44;;;;;;;9.63;5.83;;;5.20;89.90;;;;;;5038604;28;20502;-80
2021/04/24 01:13:13;;;;;;;13.03;6.27;;;5.20;89.90;;;;;;5036817;28;20964;-80
2021/04/24 01:15:41;;;;;;;11.87;5.27;;;5.20;90.00;;;;;;5053925;28;20076;-80
2021/04/24 01:18:08;;;;;;;11.80;6.00;;;5.20;89.90;;;;;;5052761;28;20048;-80
2021/04/24 01:20:36;;;;;;;11.47;5.93;;;5.20;89.90;;;;;;5024801;28;20039;-80
2021/04/24 01:23:05;;;;;;;13.80;5.97;;;5.20;89.90;;;;;;5036905;28;20041;-80
2021/04/24 01:25:33;;;;;;;14.60;7.33;;;5.10;89.90;;;;;;5037785;28;20059;-80
2021/04/24 01:28:00;;;;;;;9.23;5.60;;;5.10;90.50;;;;;;5021682;28;20040;-80
2021/04/24 01:30:31;;;;;;;11.63;6.40;;;5.10;90.20;;;;;;5034770;28;20048;-80
2021/04/24 01:32:58;;;;;;;10.73;5.67;;;5.10;90.20;;;;;;5073242;28;20032;-80
2021/04/24 01:35:28;;;;;;;14.00;6.47;;;5.10;90.10;;;;;;5056953;28;20051;-80
2021/04/24 01:37:55;;;;;;;13.03;6.97;;;5.00;90.20;;;;;;5052157;28;20036;-80
2021/04/24 01:40:23;;;;;;;11.00;6.80;;;5.00;90.20;;;;;;5038331;28;20044;-80
2021/04/24 01:42:50;;;;;;;13.80;7.47;;;5.00;90.20;;;;;;5041239;28;20398;-80
2021/04/24 01:45:20;;;;;;;16.93;7.90;;;4.90;90.40;;;;;;5053131;28;20048;-80
2021/04/24 01:47:47;;;;;;;15.47;8.27;;;4.90;90.40;;;;;;5068633;28;20407;-80
2021/04/24 01:50:36;;;;;;;11.43;6.63;;;4.90;90.60;;;;;;5022443;28;20044;-80
2021/04/24 01:53:05;;;;;;;13.73;6.97;;;4.90;90.60;;;;;;5042198;28;20037;-80
2021/04/24 01:55:34;;;;;;;13.40;6.30;;;4.90;90.50;;;;;;5038915;28;20447;-80
2021/04/24 01:58:04;;;;;;;14.97;8.30;;;4.90;90.40;;;;;;5048971;28;20078;-80
2021/04/24 02:00:37;;;;;;;13.37;7.37;;;4.90;90.70;;;;;;5021291;28;20033;-80
2021/04/24 02:03:07;;;;;;;11.88;6.13;;;4.90;90.60;;;;;;5052027;28;20052;-80
2021/04/24 02:05:34;;;;;;;12.17;7.37;;;4.90;90.60;;;;;;5035642;28;20036;-80
2021/04/24 02:08:06;;;;;;;12.90;7.70;;;4.80;90.60;;;;;;5018082;28;20056;-80
2021/04/24 02:10:34;;;;;;;18.35;8.35;;;4.80;90.60;;;;;;5049882;28;20036;-80
2021/04/24 02:13:09;;;;;;;11.47;6.80;;;4.80;90.70;;;;;;5019819;28;20037;-80
2021/04/24 02:15:36;;;;;;;14.10;7.27;;;4.80;90.80;;;;;;5035538;28;20041;-80
2021/04/24 02:18:04;;;;;;;15.27;7.57;;;4.80;90.70;;;;;;5010304;28;20053;-80
2021/04/24 02:20:32;;;;;;;11.30;6.43;;;4.80;90.80;;;;;;5012521;28;20487;-80
2021/04/24 02:22:59;;;;;;;14.17;7.80;;;4.80;90.80;;;;;;5010726;28;20547;-80
2021/04/24 02:25:25;;;;;;;14.00;7.23;;;4.80;90.80;;;;;;5028057;28;20058;-80
2021/04/24 02:27:52;;;;;;;12.20;6.70;;;4.80;90.90;;;;;;4994048;28;20577;-80
2021/04/24 02:30:21;;;;;;;13.03;6.20;;;4.80;90.80;;;;;;5009663;28;20045;-80
2021/04/24 02:32:48;;;;;;;14.37;7.63;;;4.80;91.10;;;;;;5007067;28;20041;-80
2021/04/24 02:35:19;;;;;;;15.70;6.50;;;4.80;90.90;;;;;;5026432;28;20041;-80
2021/04/24 02:37:45;;;;;;;15.73;6.50;;;4.80;90.90;;;;;;5013749;28;20052;-81
2021/04/24 02:40:17;;;;;;;16.67;7.60;;;4.80;90.90;;;;;;4998751;28;20037;-81
2021/04/24 02:42:44;;;;;;;15.07;6.93;;;4.80;91.10;;;;;;5035027;28;20037;-81
2021/04/24 02:45:13;;;;;;;10.97;5.83;;;4.80;91.20;;;;;;5024492;28;20037;-81
2021/04/24 02:47:40;;;;;;;12.60;5.77;;;4.80;91.10;;;;;;4995994;28;20415;-80
2021/04/24 02:50:10;;;;;;;9.77;5.90;;;4.80;91.10;;;;;;5028189;28;20049;-80
2021/04/24 02:52:37;;;;;;;15.17;6.73;;;4.80;91.20;;;;;;5035878;28;20029;-80
2021/04/24 02:55:08;;;;;;;13.93;6.83;;;4.80;91.40;;;;;;5012859;28;20056;-80
2021/04/24 02:57:34;;;;;;;12.87;6.23;;;4.80;91.30;;;;;;5013030;28;20033;-80
2021/04/24 03:00:01;;;;;;;13.80;7.23;;;4.90;91.30;;;;;;5001528;28;20040;-80
2021/04/24 03:02:28;;;;;;;20.63;9.43;;;4.80;91.60;;;;;;5001885;28;20389;-80
2021/04/24 03:04:55;;;;;;;18.87;8.47;;;4.80;91.90;;;;;;5010676;28;20083;-80
2021/04/24 03:07:21;;;;;;;15.43;8.10;;;4.80;91.90;;;;;;4994838;28;20515;-80
2021/04/24 03:09:48;;;;;;;16.17;8.40;;;4.90;92.00;;;;;;5014229;28;20037;-80
2021/04/24 03:12:15;;;;;;;10.30;6.07;;;4.90;91.90;;;;;;5029337;28;20537;-80
2021/04/24 03:14:42;;;;;;;12.77;7.70;;;4.80;91.80;;;;;;5029197;28;20481;-80
2021/04/24 03:17:10;;;;;;;14.57;6.83;;;4.90;91.90;;;;;;5010220;28;20034;-80
2021/04/24 03:19:36;;;;;;;16.70;7.53;;;4.90;91.90;;;;;;5017145;28;20045;-80
2021/04/24 03:22:03;;;;;;;14.00;7.53;;;4.90;91.80;;;;;;4994163;28;20045;-80
2021/04/24 03:24:29;;;;;;;23.40;7.97;;;4.90;92.00;;;;;;4983234;28;20037;-80
2021/04/24 03:26:56;;;;;;;13.57;6.90;;;4.90;92.00;;;;;;4997276;28;20053;-80
2021/04/24 03:29:22;;;;;;;15.70;7.03;;;4.90;92.10;;;;;;4996932;28;20404;-80
2021/04/24 03:31:49;;;;;;;15.97;7.80;;;4.90;92.20;;;;;;4982493;28;20117;-80
2021/04/24 03:34:15;;;;;;;13.57;7.40;;;4.90;92.10;;;;;;4994092;28;20033;-80
2021/04/24 03:36:42;;;;;;;15.40;6.90;;;4.90;92.10;;;;;;4996055;28;20053;-80
2021/04/24 03:39:08;;;;;;;17.07;8.17;;;4.90;92.20;;;;;;5010071;28;20033;-80
2021/04/24 03:41:35;;;;;;;15.60;7.97;;;4.80;92.30;;;;;;4996295;28;20571;-80
2021/04/24 03:44:01;;;;;;;16.10;9.37;;;4.80;92.30;;;;;;5010998;28;20038;-80
2021/04/24 03:46:28;;;;;;;14.77;7.10;;;4.80;92.50;;;;;;5023559;28;20037;-80
2021/04/24 03:48:55;;;;;;;12.63;6.53;;;4.80;92.50;;;;;;4991417;28;20507;-80
2021/04/24 03:51:21;;;;;;;16.43;8.33;;;4.80;92.40;;;;;;5011165;28;20041;-79
2021/04/24 03:53:48;;;;;;;13.80;8.20;;;4.80;92.50;;;;;;5013783;28;20048;-80
2021/04/24 03:56:14;;;;;;;10.93;6.47;;;4.80;92.60;;;;;;4991535;28;20060;-79
2021/04/24 03:58:41;;;;;;;16.47;8.67;;;4.80;92.60;;;;;;5009740;28;20040;-80
2021/04/24 04:01:07;;;;;;;16.07;7.13;;;4.80;92.50;;;;;;5010557;28;21027;-80
2021/04/24 04:03:34;;;;;;;11.70;6.87;;;4.80;92.60;;;;;;4992519;28;20535;-80
2021/04/24 04:06:00;;;;;;;12.60;6.80;;;4.80;92.50;;;;;;5008313;28;20057;-79
2021/04/24 04:08:27;;;;;;;13.20;6.80;;;4.80;92.50;;;;;;5008498;28;20038;-80
2021/04/24 04:10:53;;;;;;;13.83;6.57;;;4.70;92.50;;;;;;5009120;28;20058;-80
2021/04/24 04:13:21;;;;;;;16.43;8.63;;;4.70;92.60;;;;;;5007771;28;20041;-79
2021/04/24 04:15:47;;;;;;;10.73;6.43;;;4.70;92.70;;;;;;5005944;28;20041;-80
2021/04/24 04:18:18;;;;;;;13.13;6.97;;;4.70;92.80;;;;;;4975877;28;20053;-79
2021/04/24 04:20:51;;;;;;;16.33;8.07;;;4.70;92.70;;;;;;5054759;28;20044;-80
2021/04/24 04:23:18;;;;;;;20.88;8.35;;;4.70;92.80;;;;;;5031883;28;20410;-80
2021/04/24 04:25:45;;;;;;;14.70;7.00;;;4.70;93.20;;;;;;5056092;28;20401;-80
2021/04/24 04:28:13;;;;;;;12.70;6.77;;;4.70;93.30;;;;;;5032533;28;20045;-80
2021/04/24 04:30:41;;;;;;;13.47;6.97;;;4.70;93.20;;;;;;5049557;28;20098;-80
2021/04/24 04:33:08;;;;;;;13.27;7.00;;;4.70;93.20;;;;;;5029267;28;20049;-80
2021/04/24 04:35:36;;;;;;;12.77;6.53;;;4.70;93.20;;;;;;5035988;28;20044;-80
2021/04/24 04:38:03;;;;;;;21.57;7.90;;;4.70;93.20;;;;;;5034430;28;20036;-80
2021/04/24 04:40:30;;;;;;;16.73;7.80;;;4.70;93.20;;;;;;5061502;28;20045;-80
2021/04/24 04:42:57;;;;;;;18.87;8.17;;;4.70;93.20;;;;;;5035941;28;20031;-80
2021/04/24 04:45:24;;;;;;;17.43;8.30;;;4.70;93.40;;;;;;5057511;28;20032;-80
2021/04/24 04:47:50;;;;;;;13.27;6.93;;;4.80;93.70;;;;;;5031868;28;20028;-80
2021/04/24 04:50:32;;;;;;;18.07;8.37;;;4.80;93.70;;;;;;5069081;28;20503;-80
2021/04/24 04:52:59;;;;;;;13.47;6.50;;;4.90;93.80;;;;;;5033799;28;20506;-80
2021/04/24 04:55:27;;;;;;;17.00;7.03;;;4.90;93.90;;;;;;5054780;28;20357;-80
2021/04/24 04:57:55;;;;;;;12.63;6.20;;;5.00;93.80;;;;;;5013311;28;20038;-80
2021/04/24 05:00:24;;;;;;;12.47;5.33;;;5.10;93.80;;;;;;5052246;28;20424;-80
2021/04/24 05:02:51;;;;;;;14.40;6.27;;;5.10;93.70;;;;;;5048892;28;20052;-80
2021/04/24 05:05:18;;;;;;;12.83;6.80;;;5.20;93.60;;;;;;5018418;28;20037;-81
2021/04/24 05:07:48;;;;;;;11.63;5.87;;;5.30;93.70;;;;;;5051059;28;20052;-81
2021/04/24 05:10:17;;;;;;;14.07;7.47;;;5.40;93.60;;;;;;5050677;28;20044;-81
2021/04/24 05:12:43;;;;;;;10.40;5.93;;;5.50;93.40;;;;;;5050603;28;20036;-81
2021/04/24 05:15:11;;;;;;;10.60;6.47;;;5.60;93.30;;;;;;5036315;28;20040;-79
2021/04/24 05:17:37;;;;;;;11.10;5.37;;;5.60;93.20;;;;;;5049805;28;20403;-79
2021/04/24 05:20:05;;;;;;;12.67;5.43;;;5.70;93.20;;;;;;5029166;28;20048;-82
2021/04/24 05:22:32;;;;;;;11.97;6.40;;;5.80;93.10;;;;;;5029271;28;20045;-81
2021/04/24 05:24:59;;;;;;;15.40;6.67;;;5.80;93.40;;;;;;5031930;28;20040;-85
2021/04/24 05:27:26;;;;;;;15.70;6.03;;;5.80;93.10;;;;;;5031112;28;20118;-82
2021/04/24 05:29:53;;;;;;;13.30;7.13;;;5.90;93.00;;;;;;5032667;28;20036;-82
2021/04/24 05:32:19;;;;;;;17.03;8.07;;;6.00;92.90;;;;;;5034600;28;20045;-82
2021/04/24 05:34:47;;;;;;;15.17;8.20;;;6.10;92.80;;;;;;5002798;28;20573;-82
2021/04/24 05:37:15;;;;;;;15.07;5.97;;;6.20;92.70;;;;;;5032419;28;20439;-81
2021/04/24 05:39:42;;;;;;;12.93;5.77;;;6.30;92.60;;;;;;4998599;28;20613;-81
2021/04/24 05:42:12;;;;;;;10.97;5.50;;;6.40;92.60;;;;;;5016680;28;20483;-81
2021/04/24 05:44:40;;;;;;;9.30;4.97;;;6.50;92.40;;;;;;5032118;28;20036;-82
2021/04/24 05:47:07;;;;;;;15.60;6.70;;;6.60;92.30;;;;;;5063964;28;20049;-82
2021/04/24 05:49:34;;;;;;;10.33;5.40;;;6.70;92.10;;;;;;5046882;28;20059;-81
2021/04/24 05:52:04;;;;;;;15.33;5.87;;;6.90;91.90;;;;;;5032453;28;20522;-82
2021/04/24 05:54:31;;;;;;;12.10;5.17;;;7.00;91.70;;;;;;5031644;28;20041;-80
2021/04/24 05:56:58;;;;;;;14.57;5.83;;;7.30;91.60;;;;;;5048525;28;20053;-80
2021/04/24 05:59:24;;;;;;;11.77;6.20;;;7.50;91.30;;;;;;5029211;28;20041;-80
2021/04/24 06:01:51;;;;;;;13.70;8.03;;;7.70;91.10;;;;;;5017246;28;20029;-80
2021/04/24 06:04:17;;;;;;;23.03;10.00;;;7.90;90.60;;;;;;5050708;28;20057;-80
2021/04/24 06:06:44;;;;;;;14.70;6.70;;;8.00;90.30;;;;;;5030232;28;20045;-81
2021/04/24 06:09:10;;;;;;;10.23;5.93;;;8.10;89.90;;;;;;5028586;28;20033;-83
2021/04/24 06:11:37;;;;;;;12.47;5.90;;;8.20;89.20;;;;;;5030614;28;20045;-79
2021/04/24 06:14:04;;;;;;;10.67;5.73;;;8.20;89.00;;;;;;5032234;28;20048;-80
2021/04/24 06:16:31;;;;;;;7.40;4.80;;;8.30;88.80;;;;;;5045003;28;20075;-80
2021/04/24 06:18:58;;;;;;;14.30;7.85;;;8.30;88.60;;;;;;5009532;28;20052;-81
2021/04/24 06:21:24;;;;;;;13.93;5.93;;;8.30;88.60;;;;;;5036050;28;20411;-80
2021/04/24 06:23:51;;;;;;;9.80;6.53;;;8.30;88.40;;;;;;5015046;28;20037;-80
2021/04/24 06:26:18;;;;;;;12.53;8.13;;;8.40;88.20;;;;;;5028287;28;20033;-79
2021/04/24 06:28:44;;;;;;;14.63;6.93;;;8.50;87.90;;;;;;4984909;28;20817;-81
2021/04/24 06:31:11;;;;;;;13.75;6.18;;;8.50;87.80;;;;;;5017767;28;20044;-81
2021/04/24 06:33:37;;;;;;;10.63;5.90;;;8.50;87.60;;;;;;5017420;28;20172;-81
2021/04/24 06:36:04;;;;;;;13.43;7.33;;;8.60;87.60;;;;;;5035719;28;20049;-81
2021/04/24 06:38:31;;;;;;;10.65;5.40;;;8.70;87.30;;;;;;5013011;28;20081;-81
2021/04/24 06:40:58;;;;;;;11.02;4.70;;;9.00;86.90;;;;;;5015446;28;20041;-81
2021/04/24 06:43:24;;;;;;;11.32;6.22;;;9.20;86.00;;;;;;4999372;28;20246;-81
2021/04/24 06:45:51;;;;;;;10.60;5.97;;;9.40;85.40;;;;;;4994242;28;20037;-81
2021/04/24 06:48:17;;;;;;;12.85;5.85;;;9.60;84.90;;;;;;5014450;28;20068;-81
2021/04/24 06:50:44;;;;;;;12.77;6.03;;;9.80;84.60;;;;;;5032720;28;20052;-85
2021/04/24 06:53:10;;;;;;;10.18;5.18;;;10.00;84.20;;;;;;5035159;28;20476;-79
2021/04/24 06:55:37;;;;;;;12.30;7.80;;;10.20;83.20;;;;;;5015279;28;20045;-79
2021/04/24 06:58:04;;;;;;;12.63;6.20;;;10.50;82.60;;;;;;5010919;28;20500;-79
2021/04/24 07:00:30;;;;;;;17.55;6.40;;;10.70;80.90;;;;;;5027212;28;20033;-79
2021/04/24 07:02:57;;;;;;;12.85;6.30;;;10.90;79.80;;;;;;5017141;28;20642;-87
2021/04/24 07:05:24;;;;;;;9.25;5.45;;;10.90;78.20;;;;;;5000460;28;20049;-81
2021/04/24 07:07:50;;;;;;;9.25;5.32;;;10.90;78.20;;;;;;5010411;28;20042;-81
2021/04/24 07:10:17;;;;;;;9.73;5.05;;;10.80;77.50;;;;;;4995831;28;20056;-80
2021/04/24 07:12:46;;;;;;;9.57;4.70;;;10.70;77.80;;;;;;4995593;28;20052;-81
2021/04/24 07:15:13;;;;;;;9.27;5.38;;;10.70;78.10;;;;;;5012175;28;20048;-82
2021/04/24 07:17:40;;;;;;;9.35;4.78;;;10.80;77.60;;;;;;5012181;28;20056;-83
2021/04/24 07:20:09;;;;;;;10.40;4.45;;;10.80;77.20;;;;;;5027707;28;20053;-83
2021/04/24 07:22:43;;;;;;;10.38;3.38;;;10.90;75.70;;;;;;4998743;28;20045;-88
2021/04/24 07:25:10;;;;;;;8.95;3.42;;;11.00;75.30;;;;;;4995372;28;20037;-81
2021/04/24 07:27:37;;;;;;;7.82;3.45;;;11.10;74.10;;;;;;5009051;28;20048;-83
2021/04/24 07:30:09;;;;;;;14.10;9.43;;;11.20;73.80;;;;;;5043450;28;20044;-82
2021/04/24 07:32:36;;;;;;;7.73;5.03;;;11.30;72.00;;;;;;5009281;28;20091;-81
2021/04/24 07:35:05;;;;;;;11.20;5.65;;;11.40;71.50;;;;;;5025330;28;20281;-83
2021/04/24 07:37:31;;;;;;;6.80;3.55;;;11.40;71.60;;;;;;4990951;28;20135;-83
2021/04/24 07:39:58;;;;;;;7.80;3.53;;;11.60;70.50;;;;;;4993231;28;20049;-80
2021/04/24 07:42:25;;;;;;;6.20;2.67;;;11.60;70.50;;;;;;5028816;28;20064;-80
2021/04/24 07:44:52;;;;;;;6.78;2.33;;;11.60;69.90;;;;;;5009470;28;20511;-80
2021/04/24 07:47:19;;;;;;;6.53;1.77;;;11.70;68.80;;;;;;5025652;28;20380;-80
2021/04/24 07:49:45;;;;;;;5.32;2.67;;;11.70;67.50;;;;;;5007648;28;20342;-80
2021/04/24 07:52:14;;;;;;;6.32;2.72;;;11.80;67.50;;;;;;4994140;28;20048;-80
2021/04/24 07:54:43;;;;;;;9.60;4.18;;;11.80;66.40;;;;;;5030782;28;20407;-82
2021/04/24 07:57:11;;;;;;;7.18;3.60;;;11.90;66.80;;;;;;5012853;28;20044;-82
2021/04/24 07:59:38;;;;;;;4.97;2.40;;;11.90;66.40;;;;;;4999013;28;20046;-82
2021/04/24 08:02:04;;;;;;;5.10;2.45;;;12.00;66.00;;;;;;4997262;28;20052;-82
2021/04/24 08:04:31;;;;;;;4.35;1.45;;;12.00;65.20;;;;;;4991239;28;20048;-82
2021/04/24 08:06:58;;;;;;;6.18;1.85;;;12.10;64.00;;;;;;5004939;28;20049;-82
2021/04/24 08:09:26;;;;;;;4.30;1.30;;;12.10;63.30;;;;;;4992936;28;20038;-84
2021/04/24 08:11:53;;;;;;;4.97;1.50;;;12.10;63.30;;;;;;4996032;28;20112;-85
2021/04/24 08:14:20;;;;;;;4.95;1.23;;;12.10;61.90;;;;;;5010218;28;20049;-85
2021/04/24 08:16:46;;;;;;;5.07;1.65;;;12.10;61.40;;;;;;5028430;28;20060;-85
2021/04/24 08:19:13;;;;;;;4.47;1.80;;;12.20;60.30;;;;;;5005708;28;20040;-84
2021/04/24 08:21:40;;;;;;;5.68;2.58;;;12.30;60.70;;;;;;5036453;28;20040;-83
2021/04/24 08:24:07;;;;;;;8.10;2.75;;;12.30;61.30;;;;;;4998351;28;20021;-82
2021/04/24 08:26:34;;;;;;;2.90;1.27;;;12.40;61.40;;;;;;5029971;28;20391;-83
2021/04/24 08:29:01;;;;;;;6.45;4.10;;;12.50;60.50;;;;;;5047198;28;20044;-82
2021/04/24 08:31:27;;;;;;;3.47;1.98;;;12.60;59.80;;;;;;5031842;28;20057;-83
2021/04/24 08:33:54;;;;;;;4.35;1.73;;;12.60;59.20;;;;;;5031310;28;20047;-81
2021/04/24 08:36:20;;;;;;;3.58;1.33;;;12.60;59.00;;;;;;5030588;28;20044;-85
2021/04/24 08:38:47;;;;;;;2.90;1.55;;;12.70;59.30;;;;;;5015008;28;20028;-84
2021/04/24 08:41:13;;;;;;;2.58;0.88;;;12.80;59.20;;;;;;5033114;28;20558;-84
2021/04/24 08:43:40;;;;;;;6.05;1.52;;;13.00;58.40;;;;;;4997803;28;20525;-85
2021/04/24 08:46:07;;;;;;;5.93;1.77;;;13.10;56.00;;;;;;5015659;28;20040;-82
2021/04/24 08:48:35;;;;;;;4.22;2.00;;;13.10;55.40;;;;;;5031689;28;20052;-84
2021/04/24 08:51:02;;;;;;;14.15;8.70;;;13.10;55.30;;;;;;5052738;28;20486;-81
2021/04/24 08:53:28;;;;;;;6.10;3.55;;;13.10;56.40;;;;;;5050987;28;20522;-81
2021/04/24 08:55:55;;;;;;;6.45;4.00;;;13.10;56.20;;;;;;5025169;28;20404;-80
2021/04/24 08:58:21;;;;;;;3.67;1.63;;;13.00;56.60;;;;;;5071822;28;20407;-80
2021/04/24 09:00:50;;;;;;;3.92;1.35;;;13.10;57.30;;;;;;5053286;28;20036;-81
2021/04/24 09:03:20;;;;;;;7.78;4.00;;;13.30;57.50;;;;;;5042931;28;20055;-81
2021/04/24 09:05:52;;;;;;;9.45;5.10;;;13.40;56.50;;;;;;5052764;28;20040;-81
2021/04/24 09:08:24;;;;;;;7.53;4.47;;;13.50;56.30;;;;;;5050476;28;20052;-81
2021/04/24 09:10:54;;;;;;;11.20;5.88;;;13.70;55.70;;;;;;5017833;28;20399;-82
2021/04/24 09:13:23;;;;;;;8.07;4.28;;;13.80;54.50;;;;;;5070615;28;20048;-82
2021/04/24 09:15:51;;;;;;;4.47;1.58;;;13.80;53.60;;;;;;5062516;28;20600;-81
2021/04/24 09:18:20;;;;;;;4.10;1.52;;;13.90;53.40;;;;;;5012366;28;20072;-79
2021/04/24 09:21:00;;;;;;;3.03;1.20;;;14.00;52.80;;;;;;5060099;28;20048;-80
2021/04/24 09:23:26;;;;;;;4.43;1.40;;;14.10;52.00;;;;;;5032778;28;20040;-80
2021/04/24 09:26:06;;;;;;;2.33;0.80;;;14.20;49.40;;;;;;5068195;28;20044;-83
2021/04/24 09:28:44;;;;;;;1.45;0.55;;;14.20;50.20;;;;;;5032747;28;20040;-82
2021/04/24 09:31:16;;;;;;;3.67;1.20;;;14.30;50.30;;;;;;5036476;28;20450;-82
2021/04/24 09:33:44;;;;;;;3.07;1.10;;;14.50;49.70;;;;;;5051372;28;20394;-83
2021/04/24 09:36:13;;;;;;;3.35;1.02;;;14.60;49.80;;;;;;5002294;28;20071;-83
2021/04/24 09:38:42;;;;;;;2.33;0.90;;;14.70;49.30;;;;;;5031505;28;20678;-83
2021/04/24 09:41:16;;;;;;;1.60;0.77;;;14.70;49.10;;;;;;5035834;28;20036;-83
2021/04/24 09:44:04;;;;;;;5.90;2.15;;;14.70;48.70;;;;;;5033273;28;20028;-84
2021/04/24 09:46:57;;;;;;;4.18;1.55;;;14.70;49.30;;;;;;5047992;28;20066;-83
2021/04/24 09:49:33;;;;;;;4.30;1.60;;;14.60;47.30;;;;;;5011474;28;20407;-79
2021/04/24 09:52:05;;;;;;;3.38;2.22;;;14.60;48.10;;;;;;5050126;28;20569;-81
2021/04/24 09:54:42;;;;;;;5.22;1.60;;;14.60;48.40;;;;;;5031737;28;20060;-84
2021/04/24 09:57:10;;;;;;;4.20;1.58;;;14.60;48.70;;;;;;5033733;28;20044;-84
2021/04/24 09:59:57;;;;;;;4.97;1.63;;;14.70;47.40;;;;;;5034500;28;20040;-88
2021/04/24 10:02:39;;;;;;;7.32;1.83;;;14.80;48.10;;;;;;5031955;28;20044;-87
2021/04/24 10:05:12;;;;;;;;;;;14.80;46.40;;;;;;5023863;28;20032;-82
2021/04/24 10:07:41;;;;;;;2.70;1.60;;;14.90;47.50;;;;;;5028909;28;19928;-82
2021/04/24 10:10:10;;;;;;;3.70;1.90;;;15.00;47.10;;;;;;5032406;28;20403;-81
2021/04/24 10:12:37;;;;;;;2.85;1.30;;;15.20;45.90;;;;;;5065620;28;20036;-82
2021/04/24 10:15:05;;;;;;;2.75;1.30;;;15.20;44.70;;;;;;5041510;28;20037;-84
2021/04/24 10:17:33;;;;;;;4.90;1.83;;;15.20;44.90;;;;;;5032352;28;20053;-82
2021/04/24 10:20:01;;;;;;;3.08;1.50;;;15.30;45.10;;;;;;5027118;28;20496;-82
2021/04/24 10:22:28;;;;;;;2.83;1.45;;;15.40;45.70;;;;;;5023774;28;20053;-82
2021/04/24 10:24:54;;;;;;;3.28;1.10;;;15.50;45.20;;;;;;5031084;28;20041;-84
2021/04/24 10:27:22;;;;;;;2.20;1.20;;;15.70;46.00;;;;;;5009315;28;20053;-83
2021/04/24 10:29:50;;;;;;;3.22;1.40;;;16.00;45.10;;;;;;5014523;28;20033;-83
2021/04/24 10:32:17;;;;;;;3.22;1.20;;;16.20;45.10;;;;;;5032167;28;20049;-83
2021/04/24 10:34:44;;;;;;;2.92;1.17;;;16.40;44.80;;;;;;5008906;28;20048;-84
2021/04/24 10:37:11;;;;;;;3.63;1.55;;;16.60;43.70;;;;;;5028280;28;20045;-83
2021/04/24 10:39:40;;;;;;;3.55;1.25;;;16.70;43.20;;;;;;5031359;28;20412;-82
2021/04/24 10:42:21;;;;;;;4.85;1.58;;;16.80;43.70;;;;;;4982705;28;20030;-82
2021/04/24 10:44:50;;;;;;;3.95;1.92;;;17.00;43.90;;;;;;5042611;28;20045;-86
2021/04/24 10:47:37;;;;;;;4.38;2.17;;;17.30;42.80;;;;;;5007068;28;20041;-81
2021/04/24 10:50:06;;;;;;;7.03;4.35;;;17.50;41.60;;;;;;5007278;28;20057;-81
2021/04/24 10:52:33;;;;;;;5.05;2.58;;;17.60;42.50;;;;;;5023495;28;20120;-82
2021/04/24 10:55:12;;;;;;;4.22;1.50;;;18.00;41.20;;;;;;5007508;28;20025;-83
2021/04/24 10:57:48;;;;;;;6.22;2.22;;;18.20;39.30;;;;;;5009479;28;20064;-82
2021/04/24 11:00:21;;;;;;;3.25;1.83;;;18.30;38.60;;;;;;5023177;28;20048;-80
2021/04/24 11:03:00;;;;;;;2.85;1.48;;;18.40;38.70;;;;;;5029805;28;20469;-85
2021/04/24 11:05:31;;;;;;;5.10;3.05;;;18.60;39.70;;;;;;5006548;28;20052;-83
2021/04/24 11:08:15;;;;;;;4.18;2.20;;;18.80;37.70;;;;;;5014390;28;20044;-84
2021/04/24 11:10:46;;;;;;;4.05;2.10;;;18.70;38.80;;;;;;5049406;28;20049;-82
2021/04/24 11:13:16;;;;;;;5.07;2.95;;;18.60;37.50;;;;;;5030947;28;20065;-82
2021/04/24 11:15:43;;;;;;;3.70;1.90;;;18.40;37.60;;;;;;5007173;28;20033;-82
2021/04/24 11:18:15;;;;;;;3.75;2.22;;;18.10;38.60;;;;;;5007653;28;20040;-82
2021/04/24 11:20:51;;;;;;;3.80;2.72;;;18.00;39.60;;;;;;5045826;28;20064;-81
2021/04/24 11:23:29;;;;;;;3.53;2.42;;;17.90;39.80;;;;;;5027210;28;20048;-81
2021/04/24 11:25:57;;;;;;;4.45;2.88;;;17.70;39.70;;;;;;5025536;28;20076;-81
2021/04/24 11:28:24;;;;;;;6.07;2.70;;;17.50;39.70;;;;;;5026997;28;20049;-82
2021/04/24 11:30:52;;;;;;;4.57;2.40;;;17.40;40.30;;;;;;5009169;28;20408;-84
2021/04/24 11:33:38;;;;;;;14.35;8.88;;;17.40;41.10;;;;;;5010380;28;20487;-81
2021/04/24 11:36:22;;;;;;;13.38;9.35;;;17.50;41.00;;;;;;5041978;28;20030;-81
2021/04/24 11:39:00;;;;;;;6.18;3.78;;;17.50;40.90;;;;;;5023011;28;20044;-85
2021/04/24 11:41:44;;;;;;;7.65;3.88;;;17.50;40.80;;;;;;5007618;28;20038;-85
2021/04/24 11:44:24;;;;;;;6.70;3.10;;;17.50;40.70;;;;;;5008316;28;20048;-85
2021/04/24 11:46:51;;;;;;;8.18;3.80;;;17.60;41.20;;;;;;5013555;28;20038;-84
2021/04/24 11:49:26;;;;;;;6.10;3.97;;;17.60;40.80;;;;;;5007015;28;20038;-86
2021/04/24 11:52:07;;;;;;;8.10;3.83;;;17.40;41.00;;;;;;4994638;28;20526;-85
2021/04/24 11:54:41;;;;;;;9.95;3.80;;;17.40;41.80;;;;;;4992026;28;20040;-84
2021/04/24 11:57:12;;;;;;;6.47;3.85;;;17.50;41.30;;;;;;5039711;28;20531;-86
2021/04/24 11:59:41;;;;;;;7.00;3.65;;;17.60;41.60;;;;;;4998341;28;20496;-83
2021/04/24 12:02:21;;;;;;;5.93;3.53;;;17.60;41.80;;;;;;4994147;28;20049;-82
2021/04/24 12:04:53;;;;;;;8.07;2.63;;;17.80;42.20;;;;;;5025996;28;20037;-82
2021/04/24 12:07:20;;;;;;;4.43;2.93;;;18.00;40.90;;;;;;5025758;28;20061;-82
2021/04/24 12:09:54;;;;;;;5.85;2.45;;;17.90;40.80;;;;;;5008888;28;20040;-82
2021/04/24 12:12:42;;;;;;;7.13;4.15;;;17.80;40.90;;;;;;5024419;28;20398;-83
2021/04/24 12:15:13;;;;;;;7.95;3.88;;;17.70;41.30;;;;;;5007143;28;20033;-83
2021/04/24 12:17:50;;;;;;;5.13;3.70;;;17.60;41.50;;;;;;5038370;28;20079;-83
2021/04/24 12:20:33;;;;;;;5.53;2.85;;;17.50;41.90;;;;;;4992125;28;20045;-83
2021/04/24 12:23:02;;;;;;;10.10;3.45;;;17.30;42.60;;;;;;5007643;28;20053;-82
2021/04/24 12:25:30;;;;;;;5.57;3.65;;;17.30;42.90;;;;;;4992867;28;20033;-82
2021/04/24 12:27:58;;;;;;;6.15;3.72;;;17.10;43.50;;;;;;5005657;28;20041;-83
2021/04/24 12:30:27;;;;;;;8.63;4.38;;;17.00;43.70;;;;;;5010387;28;20053;-83
2021/04/24 12:33:12;;;;;;;5.57;3.47;;;16.90;43.80;;;;;;5009433;28;20036;-82
2021/04/24 12:35:47;;;;;;;5.57;3.05;;;16.90;44.10;;;;;;4991402;28;20052;-82
2021/04/24 12:38:22;;;;;;;6.30;3.75;;;17.10;44.10;;;;;;5016776;28;20060;-82
2021/04/24 12:40:56;;;;;;;6.30;3.10;;;17.20;43.70;;;;;;5009832;28;20029;-82
2021/04/24 12:43:25;;;;;;;7.97;3.50;;;17.20;43.80;;;;;;5008808;28;20059;-83
2021/04/24 12:45:55;;;;;;;6.20;3.05;;;17.20;43.00;;;;;;5020816;28;20411;-83
2021/04/24 12:48:27;;;;;;;7.35;2.22;;;17.10;42.80;;;;;;4989122;28;20037;-82
2021/04/24 12:51:00;;;;;;;5.68;2.53;;;17.00;43.00;;;;;;5007927;28;20590;-83
2021/04/24 12:53:38;;;;;;;4.88;2.47;;;16.90;43.70;;;;;;4993188;28;20049;-83
2021/04/24 12:56:19;;;;;;;7.22;3.28;;;16.90;43.90;;;;;;5043506;28;20041;-82
2021/04/24 12:58:49;;;;;;;7.90;3.08;;;17.00;44.20;;;;;;5021681;28;20052;-83